OOCL Oakland — 3EKJ6 — position and weather

sailwx.info

Track history (hours):
 
Tides and Currents Weather Stations Pressure Air Temp Water Temp Dewpoint Dewpoint Depression Visibility Wind Speed Wind Dir Waves Ship Positions

OOCL Oakland

Last reported at 2015-Sep-05 13:33 UTC. Time now 2015-Sep-05 14:20 UTC.
Position S 26°56' E 153°12'.

Length 280 m; draft 11.6 m.

Type: Ship. MMSI: 372703235.

Date/timePositionNaut miles runAvg speedWind from/ knotsBaromVisibWave heightAir tempDewpointWater temp
2015-Sep-05 13:33S 26°56' E 153°12'1312.6
2015-Sep-05 12:33S 26°44' E 153°11'6 6.5
2015-Sep-05 11:33S 26°45' E 153°18'1413.7
2015-Sep-05 10:33S 26°54' E 153°30'1313.5
2015-Sep-05 09:33S 27°05' E 153°38'1717.1
2015-Sep-05 08:33S 27°22' E 153°42'1817.8
2015-Sep-05 07:33S 27°39' E 153°45'1919.0
2015-Sep-05 06:33S 27°58' E 153°47'26918.9
2015-Sep-04 16:18S 32°22' E 152°44'1519.8
2015-Sep-04 15:33S 32°36' E 152°38'1919.1
2015-Sep-04 14:33S 32°54' E 152°30'1818.3
2015-Sep-04 13:33S 33°11' E 152°22'26518.7
2015-Sep-03 23:26S 37°17' E 150°22'2119.7
2015-Sep-03 22:22S 37°36' E 150°11'1518.9
2015-Sep-03 21:33S 37°46' E 149°57'2019.0
2015-Sep-03 20:30S 37°58' E 149°36'3719.0
2015-Sep-03 18:33S 38°20' E 148°59'1918.5
2015-Sep-03 17:33S 38°32' E 148°41'5817.6
2015-Sep-03 14:17S 38°59' E 147°36'1317.3
2015-Sep-03 13:33S 39°03' E 147°20'1817.8
2015-Sep-03 12:33S 39°10' E 146°59'1818.4
2015-Sep-03 11:33S 39°17' E 146°37'1918.6
2015-Sep-03 10:33S 39°16' E 146°13'1918.7
2015-Sep-03 09:33S 39°06' E 145°52'1918.6
2015-Sep-03 08:33S 38°56' E 145°32'  
2015-Sep-01 04:23S 38°59' E 145°43'1720.5
2015-Sep-01 03:33S 39°06' E 146°03'1919.0
2015-Sep-01 02:33S 39°10' E 146°27'2121.0
2015-Sep-01 01:33S 39°03' E 146°52'2121.5
2015-Sep-01 00:33S 38°57' E 147°19'2221.5
2015-Aug-31 23:33S 38°51' E 147°45'6019.9
2015-Aug-31 20:33S 38°20' E 148°50'2019.8
2015-Aug-31 19:33S 38°09' E 149°11'2619.2
2015-Aug-31 18:13S 37°54' E 149°38'1218.9
2015-Aug-31 17:34S 37°47' E 149°51'2119.2
2015-Aug-31 16:29S 37°35' E 150°12'1819.0
2015-Aug-31 15:33S 37°18' E 150°18'  
2015-Aug-28 20:32S 33°02' E 152°13'1515.1
2015-Aug-28 19:33S 32°50' E 152°23'1515.1
2015-Aug-28 18:33S 32°38' E 152°34'1515.0
2015-Aug-28 17:33S 32°25' E 152°44'27716.0
2015-Aug-28 00:16S 27°55' E 153°54'1317.7
2015-Aug-27 23:33S 27°43' E 153°55'  
Track history (hours):
 
Tides and Currents Weather Stations Pressure Air Temp Water Temp Dewpoint Dewpoint Depression Visibility Wind Speed Wind Dir Waves Ship Positions

OOCL Oakland

Last reported at 2015-Sep-05 13:33 UTC. Time now 2015-Sep-05 14:20 UTC.
Position S 26°56' E 153°12'.

Length 280 m; draft 11.6 m.

Type: Ship. MMSI: 372703235.

Date/timePositionNaut miles runAvg speedWind from/ knotsBaromVisibWave heightAir tempDewpointWater temp
2015-Sep-05 13:33S 26°56' E 153°12'1312.6
2015-Sep-05 12:33S 26°44' E 153°11'6 6.5
2015-Sep-05 11:33S 26°45' E 153°18'1413.7
2015-Sep-05 10:33S 26°54' E 153°30'1313.5
2015-Sep-05 09:33S 27°05' E 153°38'1717.1
2015-Sep-05 08:33S 27°22' E 153°42'1817.8
2015-Sep-05 07:33S 27°39' E 153°45'1919.0
2015-Sep-05 06:33S 27°58' E 153°47'26918.9
2015-Sep-04 16:18S 32°22' E 152°44'1519.8
2015-Sep-04 15:33S 32°36' E 152°38'1919.1
2015-Sep-04 14:33S 32°54' E 152°30'1818.3
2015-Sep-04 13:33S 33°11' E 152°22'26518.7
2015-Sep-03 23:26S 37°17' E 150°22'2119.7
2015-Sep-03 22:22S 37°36' E 150°11'1518.9
2015-Sep-03 21:33S 37°46' E 149°57'2019.0
2015-Sep-03 20:30S 37°58' E 149°36'3719.0
2015-Sep-03 18:33S 38°20' E 148°59'1918.5
2015-Sep-03 17:33S 38°32' E 148°41'5817.6
2015-Sep-03 14:17S 38°59' E 147°36'1317.3
2015-Sep-03 13:33S 39°03' E 147°20'1817.8
2015-Sep-03 12:33S 39°10' E 146°59'1818.4
2015-Sep-03 11:33S 39°17' E 146°37'1918.6
2015-Sep-03 10:33S 39°16' E 146°13'1918.7
2015-Sep-03 09:33S 39°06' E 145°52'1918.6
2015-Sep-03 08:33S 38°56' E 145°32'  
2015-Sep-01 04:23S 38°59' E 145°43'1720.5
2015-Sep-01 03:33S 39°06' E 146°03'1919.0
2015-Sep-01 02:33S 39°10' E 146°27'2121.0
2015-Sep-01 01:33S 39°03' E 146°52'2121.5
2015-Sep-01 00:33S 38°57' E 147°19'2221.5
2015-Aug-31 23:33S 38°51' E 147°45'6019.9
2015-Aug-31 20:33S 38°20' E 148°50'2019.8
2015-Aug-31 19:33S 38°09' E 149°11'2619.2
2015-Aug-31 18:13S 37°54' E 149°38'1218.9
2015-Aug-31 17:34S 37°47' E 149°51'2119.2
2015-Aug-31 16:29S 37°35' E 150°12'1819.0
2015-Aug-31 15:33S 37°18' E 150°18'  
2015-Aug-28 20:32S 33°02' E 152°13'1515.1
2015-Aug-28 19:33S 32°50' E 152°23'1515.1
2015-Aug-28 18:33S 32°38' E 152°34'1515.0
2015-Aug-28 17:33S 32°25' E 152°44'27716.0
2015-Aug-28 00:16S 27°55' E 153°54'1317.7
2015-Aug-27 23:33S 27°43' E 153°55'  

Dump ship's entire track history